createdAt,value
2022-08-23T00:05:08.254Z,1.08
2022-08-23T00:10:13.713Z,1.15
2022-08-23T00:15:16.666Z,0.95
2022-08-23T00:20:20.390Z,1.10
2022-08-23T00:25:22.229Z,1.17
2022-08-23T00:30:23.720Z,1.20
2022-08-23T00:35:26.986Z,0.95
2022-08-23T00:40:29.044Z,1.13
2022-08-23T00:45:51.530Z,1.10
2022-08-23T00:51:02.085Z,1.65
2022-08-23T00:56:05.792Z,1.10
2022-08-23T01:01:07.317Z,1.33
2022-08-23T01:06:14.498Z,1.58
2022-08-23T01:11:24.161Z,1.20
2022-08-23T01:16:25.600Z,0.90
2022-08-23T01:21:42.340Z,1.13
2022-08-23T01:26:43.991Z,2.00
2022-08-23T01:31:45.473Z,1.00
2022-08-23T01:36:46.998Z,1.05
2022-08-23T01:41:48.477Z,1.08
2022-08-23T01:46:50.030Z,1.00
2022-08-23T01:51:56.473Z,0.93
2022-08-23T01:56:57.969Z,1.30
2022-08-23T02:01:59.601Z,0.93
2022-08-23T02:07:01.111Z,1.00
2022-08-23T02:12:02.678Z,0.93
2022-08-23T02:17:05.123Z,0.93
2022-08-23T02:22:08.113Z,1.00
2022-08-23T02:27:09.986Z,0.98
2022-08-23T02:32:12.668Z,0.93
2022-08-23T02:37:14.743Z,1.00
2022-08-23T02:42:17.805Z,1.00
2022-08-23T02:47:19.552Z,0.90
2022-08-23T02:52:21.046Z,1.20
2022-08-23T02:57:22.637Z,1.15
2022-08-23T03:02:24.187Z,0.80
2022-08-23T03:07:25.721Z,0.80
2022-08-23T03:12:27.933Z,1.05
2022-08-23T03:17:29.519Z,0.93
2022-08-23T03:22:31.110Z,1.15
2022-08-23T03:27:32.957Z,1.00
2022-08-23T03:32:39.943Z,0.90
2022-08-23T03:37:55.144Z,1.23
2022-08-23T03:42:56.853Z,0.88
2022-08-23T03:47:58.690Z,0.82
2022-08-23T03:53:00.239Z,1.30
2022-08-23T03:58:01.863Z,0.93
2022-08-23T04:03:03.652Z,0.98
2022-08-23T04:08:09.450Z,0.88
2022-08-23T04:13:11.545Z,0.70
2022-08-23T04:18:14.066Z,1.00
2022-08-23T04:23:15.820Z,1.17
2022-08-23T04:28:17.338Z,1.35
2022-08-23T04:33:18.832Z,1.00
2022-08-23T04:38:24.859Z,1.00
2022-08-23T04:43:26.898Z,1.10
2022-08-23T04:48:28.354Z,1.17
2022-08-23T04:53:30.554Z,1.30
2022-08-23T04:58:32.845Z,1.42
2022-08-23T05:03:34.902Z,0.80
2022-08-23T05:08:36.368Z,1.05
2022-08-23T05:13:38.296Z,0.95
2022-08-23T05:18:40.223Z,1.00
2022-08-23T05:23:41.849Z,0.90
2022-08-23T05:28:45.169Z,0.82
2022-08-23T05:33:46.742Z,1.90
2022-08-23T05:38:49.529Z,1.25
2022-08-23T05:43:50.988Z,1.10
2022-08-23T05:48:53.237Z,1.13
2022-08-23T05:53:57.103Z,0.80
2022-08-23T05:59:00.211Z,0.82
2022-08-23T06:04:06.025Z,0.93
2022-08-23T06:09:09.210Z,1.00
2022-08-23T06:14:11.116Z,0.82
2022-08-23T06:19:12.648Z,0.82
2022-08-23T06:24:14.334Z,0.88
2022-08-23T06:29:18.227Z,1.08
2022-08-23T06:34:29.336Z,1.20
2022-08-23T06:39:37.363Z,0.80
2022-08-23T06:44:39.277Z,0.75
2022-08-23T06:49:57.399Z,0.85
2022-08-23T06:54:59.965Z,0.75
2022-08-23T07:00:01.562Z,0.85
2022-08-23T07:05:03.074Z,0.90
2022-08-23T07:10:05.778Z,0.90
2022-08-23T07:15:07.494Z,1.00
2022-08-23T07:20:09.090Z,1.50
2022-08-23T07:25:10.637Z,1.10
2022-08-23T07:30:12.599Z,1.13
2022-08-23T07:35:14.115Z,1.00
2022-08-23T07:40:20.517Z,0.88
2022-08-23T07:45:23.120Z,1.25
2022-08-23T07:50:25.497Z,0.82
2022-08-23T07:55:32.082Z,0.90
2022-08-23T08:00:33.549Z,1.08
2022-08-23T08:05:35.073Z,0.90
2022-08-23T08:10:38.486Z,0.80
2022-08-23T08:15:42.001Z,0.77
2022-08-23T08:20:43.939Z,1.02
2022-08-23T08:25:45.505Z,0.82
2022-08-23T08:30:46.985Z,0.93
2022-08-23T08:35:57.802Z,1.23
2022-08-23T08:41:23.276Z,1.52
2022-08-23T08:46:28.459Z,0.95
2022-08-23T08:51:29.924Z,0.90
2022-08-23T08:56:33.088Z,0.88
2022-08-23T09:01:36.157Z,0.90
2022-08-23T09:06:57.599Z,1.05
2022-08-23T09:11:59.113Z,1.00
2022-08-23T09:17:05.632Z,1.05
2022-08-23T09:22:13.532Z,0.88
2022-08-23T09:27:16.205Z,1.10
2022-08-23T09:32:33.018Z,1.10
2022-08-23T09:37:46.783Z,0.98
2022-08-23T09:43:03.749Z,0.90
2022-08-23T09:48:06.265Z,0.80
2022-08-23T09:53:09.478Z,1.00
2022-08-23T09:58:21.032Z,0.85
2022-08-23T10:03:29.496Z,0.77
2022-08-23T10:08:43.066Z,0.93
2022-08-23T10:13:45.094Z,0.80
2022-08-23T10:18:51.238Z,0.85
2022-08-23T10:24:12.040Z,1.35
2022-08-23T10:29:41.526Z,0.73
2022-08-23T10:34:46.001Z,0.95
2022-08-23T10:40:10.004Z,0.73
2022-08-23T10:45:25.406Z,0.82
2022-08-23T10:50:28.794Z,0.90
2022-08-23T10:55:43.863Z,0.68
2022-08-23T11:00:45.390Z,0.95
2022-08-23T11:06:06.857Z,0.75
2022-08-23T11:11:28.269Z,0.85
2022-08-23T11:16:31.207Z,0.80
2022-08-23T11:21:42.170Z,0.60
2022-08-23T11:26:46.392Z,0.82
2022-08-23T11:32:06.785Z,0.70
2022-08-23T11:37:20.476Z,0.45
2022-08-23T11:42:22.012Z,0.50
2022-08-23T11:47:38.845Z,0.80
2022-08-23T11:52:55.726Z,0.90
2022-08-23T11:58:07.864Z,0.60
2022-08-23T12:03:20.124Z,0.75
2022-08-23T12:08:27.817Z,0.93
2022-08-23T12:13:30.974Z,0.73
2022-08-23T12:18:34.397Z,0.57
2022-08-23T12:23:48.008Z,0.90
2022-08-23T12:28:51.845Z,0.70
2022-08-23T12:34:02.697Z,0.90
2022-08-23T12:39:09.003Z,0.70
2022-08-23T12:44:10.539Z,0.60
2022-08-23T12:49:23.263Z,0.70
2022-08-23T12:54:33.049Z,0.80
2022-08-23T12:59:39.127Z,0.60
2022-08-23T13:04:40.937Z,0.80
2022-08-23T13:09:43.800Z,0.90
2022-08-23T13:14:55.565Z,0.95
2022-08-23T13:20:04.063Z,0.80
2022-08-23T13:25:29.067Z,0.73
2022-08-23T13:30:36.228Z,0.80
2022-08-23T13:35:40.880Z,0.40
2022-08-23T13:40:52.779Z,0.73
2022-08-23T13:45:56.253Z,0.50
2022-08-23T13:51:16.385Z,0.50
2022-08-23T13:56:17.918Z,0.60
2022-08-23T14:01:19.643Z,0.80
2022-08-23T14:06:21.201Z,0.35
2022-08-23T14:11:22.748Z,0.50
2022-08-23T14:16:34.338Z,0.57
2022-08-23T14:21:36.194Z,0.45
2022-08-23T14:26:37.805Z,0.70
2022-08-23T14:31:52.961Z,0.55
2022-08-23T14:42:19.077Z,0.75
2022-08-23T14:47:20.614Z,0.60
2022-08-23T14:52:22.187Z,0.65
2022-08-23T14:57:23.774Z,0.80
2022-08-23T15:02:26.055Z,0.60
2022-08-23T15:07:27.570Z,0.60
2022-08-23T15:17:52.309Z,0.82
2022-08-23T15:22:55.841Z,0.50
2022-08-23T15:27:57.793Z,0.60
2022-08-23T15:32:59.338Z,0.90
2022-08-23T15:38:01.773Z,0.60
2022-08-23T15:43:03.803Z,0.60
2022-08-23T15:48:11.609Z,0.82
2022-08-23T15:53:13.889Z,0.70
2022-08-23T15:58:16.965Z,0.73
2022-08-23T16:03:21.138Z,1.52
2022-08-23T16:08:24.920Z,0.82
2022-08-23T16:13:26.540Z,0.70
2022-08-23T16:18:28.026Z,0.70
2022-08-23T16:23:29.690Z,0.60
2022-08-23T16:28:31.235Z,0.80
2022-08-23T16:33:32.726Z,0.80
2022-08-23T16:38:34.530Z,0.90
2022-08-23T16:43:36.125Z,0.95
2022-08-23T16:48:38.305Z,0.80
2022-08-23T16:53:39.845Z,1.05
2022-08-23T16:58:41.822Z,0.90
2022-08-23T17:03:43.612Z,1.00
2022-08-23T17:08:45.326Z,1.02
2022-08-23T17:13:47.553Z,0.98
2022-08-23T17:18:54.081Z,0.70
2022-08-23T17:23:55.921Z,0.80
2022-08-23T17:28:57.507Z,0.60
2022-08-23T17:34:03.324Z,1.20
2022-08-23T17:39:07.740Z,0.77
2022-08-23T17:44:09.844Z,0.65
2022-08-23T17:49:11.877Z,1.17
2022-08-23T17:54:15.946Z,1.60
2022-08-23T17:59:19.014Z,1.10
2022-08-23T18:04:20.572Z,0.90
2022-08-23T18:09:22.152Z,1.02
2022-08-23T18:14:24.017Z,0.98
2022-08-23T18:19:25.534Z,1.92
2022-08-23T18:24:27.028Z,1.55
2022-08-23T18:29:29.226Z,1.20
2022-08-23T18:34:30.722Z,1.30
2022-08-23T18:39:32.322Z,1.10
2022-08-23T18:44:33.851Z,1.33
2022-08-23T18:49:35.744Z,1.13
2022-08-23T18:54:37.525Z,1.27
2022-08-23T18:59:39.005Z,1.70
2022-08-23T19:04:40.648Z,1.20
2022-08-23T19:09:42.196Z,1.40
2022-08-23T19:14:43.753Z,1.30
2022-08-23T19:19:45.293Z,1.83
2022-08-23T19:24:47.143Z,1.88
2022-08-23T19:29:48.830Z,1.30
2022-08-23T19:34:50.632Z,1.40
2022-08-23T19:39:52.211Z,1.85
2022-08-23T19:44:53.951Z,1.30
2022-08-23T19:49:56.521Z,1.55
2022-08-23T19:55:05.190Z,1.63
2022-08-23T20:00:15.732Z,1.57
2022-08-23T20:05:20.168Z,1.35
2022-08-23T20:10:21.986Z,1.38
2022-08-23T20:15:23.518Z,1.40
2022-08-23T20:20:24.974Z,1.50
2022-08-23T20:25:26.548Z,1.77
2022-08-23T20:30:28.034Z,1.45
2022-08-23T20:35:29.547Z,1.20
2022-08-23T20:40:31.053Z,1.65
2022-08-23T20:45:33.404Z,1.30
2022-08-23T20:50:35.294Z,1.40
2022-08-23T20:55:37.557Z,1.67
2022-08-23T21:00:39.122Z,1.60
2022-08-23T21:05:40.637Z,1.45
2022-08-23T21:10:44.900Z,1.70
2022-08-23T21:15:46.951Z,1.40
2022-08-23T21:20:48.666Z,1.20
2022-08-23T21:25:54.246Z,1.27
2022-08-23T21:31:03.295Z,1.45
2022-08-23T21:36:04.928Z,1.50
2022-08-23T21:41:11.582Z,1.27
2022-08-23T21:46:13.120Z,1.15
2022-08-23T21:51:14.683Z,0.95
2022-08-23T21:56:16.857Z,1.10
2022-08-23T22:01:18.817Z,1.42
2022-08-23T22:06:20.371Z,1.00
2022-08-23T22:11:25.283Z,1.10
2022-08-23T22:16:26.767Z,1.15
2022-08-23T22:21:28.292Z,0.77
2022-08-23T22:26:37.603Z,0.77
2022-08-23T22:31:39.843Z,0.90
2022-08-23T22:36:41.979Z,0.88
2022-08-23T22:41:43.454Z,0.90
2022-08-23T22:46:45.061Z,0.80
2022-08-23T22:51:46.717Z,0.60
2022-08-23T22:56:51.797Z,0.70
2022-08-23T23:01:55.155Z,1.02
2022-08-23T23:06:57.990Z,0.68
2022-08-23T23:11:59.486Z,0.68
2022-08-23T23:17:01.079Z,1.02
2022-08-23T23:22:02.817Z,1.17
2022-08-23T23:27:04.403Z,1.08
2022-08-23T23:32:05.993Z,0.80
2022-08-23T23:37:07.506Z,0.90
2022-08-23T23:42:09.026Z,0.80
2022-08-23T23:47:10.530Z,0.60
2022-08-23T23:52:12.047Z,0.82
2022-08-23T23:57:13.636Z,0.63
